Time;durP1;ratioP1;P1;durP2;ratioP2;P2;SDS_P1;SDS_P2;PMS_P1;PMS_P2;Temp;Humidity;BMP_temperature;BMP_pressure;BME280_temperature;BME280_humidity;BME280_pressure;Samples;Min_cycle;Max_cycle;Signal;HPM_P1;HPM_P2
2022/04/18 00:00:41;;;;;;;;;;;;;;;1.77;100.00;99152.38;4937386;29;1218;-68
2022/04/18 00:03:07;;;;;;;;;;;;;;;1.81;100.00;99166.84;4953580;29;926;-72
2022/04/18 00:05:34;;;;;;;;;;;;;;;1.78;100.00;99150.41;4953422;29;807;-70
2022/04/18 00:08:02;;;;;;;;;;;;;;;1.80;100.00;99145.41;4993082;28;1874;-69
2022/04/18 00:10:29;;;;;;;;;;;;;;;1.80;100.00;99159.81;4976772;28;1309;-72
2022/04/18 00:15:58;;;;;;;;;;;;;;;1.80;100.00;99156.31;4994410;28;664;-69
2022/04/18 00:18:25;;;;;;;;;;;;;;;1.89;100.00;99153.34;4994297;28;807;-71
2022/04/18 00:20:51;;;;;;;;;;;;;;;1.86;100.00;99154.88;4976739;28;1348;-72
2022/04/18 00:23:18;;;;;;;;;;;;;;;1.86;100.00;99137.72;4976827;28;1395;-69
2022/04/18 00:25:44;;;;;;;;;;;;;;;1.89;100.00;99142.47;4994578;28;818;-69
2022/04/18 00:31:44;;;;;;;;;;;;;;;1.86;100.00;99132.25;4970845;28;1160;-68
2022/04/18 00:34:11;;;;;;;;;;;;;;;1.88;100.00;99138.94;4955272;28;823;-69
2022/04/18 00:36:39;;;;;;;;;;;;;;;1.83;100.00;99139.22;4955325;28;827;-70
2022/04/18 00:39:05;;;;;;;;;;;;;;;1.86;100.00;99137.72;4954795;28;812;-70
2022/04/18 00:41:32;;;;;;;;;;;;;;;1.87;100.00;99137.34;4955046;28;812;-74
2022/04/18 00:43:59;;;;;;;;;;;;;;;1.88;100.00;99143.59;4955278;28;859;-69
2022/04/18 00:46:26;;;;;;;;;;;;;;;1.83;100.00;99142.75;4953947;29;1186;-74
2022/04/18 00:48:52;;;;;;;;;;;;;;;1.78;100.00;99129.41;4954979;28;1895;-68
2022/04/18 01:03:32;;;;;;;;;;;;;;;1.64;100.00;99129.13;4954785;29;657;-72
2022/04/18 01:06:05;;;;;;;;;;;;;;;1.66;100.00;99136.94;4954560;28;799;-72
2022/04/18 01:08:35;;;;;;;;;;;;;;;1.58;100.00;99130.53;4954432;28;1899;-71
2022/04/18 01:11:05;;;;;;;;;;;;;;;1.55;100.00;99137.50;4954562;28;875;-71
2022/04/18 01:13:39;;;;;;;;;;;;;;;1.54;100.00;99129.72;4953049;29;1342;-71
2022/04/18 01:16:05;;;;;;;;;;;;;;;1.49;100.00;99136.22;4954274;28;839;-72
2022/04/18 01:18:32;;;;;;;;;;;;;;;1.46;100.00;99130.72;4954671;28;776;-69
2022/04/18 01:20:58;;;;;;;;;;;;;;;1.47;100.00;99127.59;4952558;28;842;-71
2022/04/18 01:23:25;;;;;;;;;;;;;;;1.46;100.00;99145.09;4954075;28;913;-72
2022/04/18 01:31:22;;;;;;;;;;;;;;;1.46;100.00;99117.09;4954099;29;681;-69
2022/04/18 01:33:50;;;;;;;;;;;;;;;1.41;100.00;99124.41;4991550;28;1589;-73
2022/04/18 01:36:16;;;;;;;;;;;;;;;1.43;100.00;99132.22;4975320;28;847;-70
2022/04/18 01:53:56;;;;;;;;;;;;;;;1.52;100.00;99123.84;4992774;28;669;-65
2022/04/18 01:56:24;;;;;;;;;;;;;;;1.57;100.00;99134.44;4992581;28;815;-67
2022/04/18 01:58:50;;;;;;;;;;;;;;;1.64;100.00;99112.78;4992647;28;862;-64
2022/04/18 02:01:17;;;;;;;;;;;;;;;1.63;100.00;99109.28;4992333;28;804;-65
2022/04/18 02:03:45;;;;;;;;;;;;;;;1.69;100.00;99104.34;4992506;28;826;-65
2022/04/18 02:06:11;;;;;;;;;;;;;;;1.70;100.00;99102.38;4992390;28;859;-66
2022/04/18 02:08:43;;;;;;;;;;;;;;;1.69;100.00;99093.44;4974596;28;1894;-67
2022/04/18 02:11:10;;;;;;;;;;;;;;;1.70;100.00;99119.50;4992521;28;885;-67
2022/04/18 02:13:36;;;;;;;;;;;;;;;1.72;100.00;99116.44;4992181;28;811;-65
2022/04/18 02:16:04;;;;;;;;;;;;;;;1.74;100.00;99108.69;4992222;28;795;-68
2022/04/18 02:30:42;;;;;;;;;;;;;;;1.71;100.00;99120.28;4992524;28;716;-67
2022/04/18 02:33:11;;;;;;;;;;;;;;;1.70;100.00;99116.00;4994534;28;1281;-67
2022/04/18 02:35:37;;;;;;;;;;;;;;;1.71;100.00;99102.03;4996433;28;800;-67
2022/04/18 02:38:04;;;;;;;;;;;;;;;1.72;100.00;99114.50;4996105;28;823;-66
2022/04/18 02:40:32;;;;;;;;;;;;;;;1.72;100.00;99108.25;4996250;28;807;-66
2022/04/18 02:42:59;;;;;;;;;;;;;;;1.66;100.00;99098.81;4996016;28;866;-67
2022/04/18 02:45:27;;;;;;;;;;;;;;;1.67;100.00;99094.94;4996014;28;887;-65
2022/04/18 02:47:53;;;;;;;;;;;;;;;1.67;100.00;99089.50;4978170;28;1972;-66
2022/04/18 02:50:20;;;;;;;;;;;;;;;1.65;100.00;99092.56;4995798;28;863;-67
2022/04/18 02:52:46;;;;;;;;;;;;;;;1.68;100.00;99078.22;4995910;28;879;-65
2022/04/18 02:55:13;;;;;;;;;;;;;;;1.68;100.00;99093.78;4995841;28;918;-67
2022/04/18 02:57:40;;;;;;;;;;;;;;;1.70;100.00;99107.84;4995737;28;823;-67
2022/04/18 03:00:08;;;;;;;;;;;;;;;1.68;100.00;99080.94;4995806;28;811;-66
2022/04/18 03:02:36;;;;;;;;;;;;;;;1.71;100.00;99102.03;4978033;28;1241;-68
2022/04/18 03:05:04;;;;;;;;;;;;;;;1.69;100.00;99098.09;4995535;28;807;-65
2022/04/18 03:07:31;;;;;;;;;;;;;;;1.69;100.00;99109.78;4995222;28;1916;-65
2022/04/18 03:09:58;;;;;;;;;;;;;;;1.72;100.00;99098.16;4995399;28;831;-67
2022/04/18 03:12:24;;;;;;;;;;;;;;;1.72;100.00;99109.03;4995342;28;833;-66
2022/04/18 03:14:50;;;;;;;;;;;;;;;1.71;100.00;99087.59;4995300;28;889;-67
2022/04/18 03:29:27;;;;;;;;;;;;;;;1.74;100.00;99106.75;4995343;28;711;-68
2022/04/18 03:31:54;;;;;;;;;;;;;;;1.74;100.00;99097.78;4994718;28;1179;-65
2022/04/18 03:46:34;;;;;;;;;;;;;;;1.77;100.00;99091.63;4995058;28;629;-70
2022/04/18 03:49:01;;;;;;;;;;;;;;;1.74;100.00;99087.69;4994530;28;1910;-69
2022/04/18 03:51:27;;;;;;;;;;;;;;;1.72;100.00;99095.44;4995107;28;799;-65
2022/04/18 03:53:54;;;;;;;;;;;;;;;1.73;100.00;99086.13;4994546;28;874;-65
2022/04/18 03:56:21;;;;;;;;;;;;;;;1.81;100.00;99079.66;4977035;28;1242;-67
2022/04/18 03:58:48;;;;;;;;;;;;;;;1.80;100.00;99088.97;4994409;28;856;-65
2022/04/18 04:01:14;;;;;;;;;;;;;;;1.80;100.00;99075.34;4994386;28;854;-66
2022/04/18 04:03:40;;;;;;;;;;;;;;;1.81;100.00;99076.94;4994378;28;875;-66
2022/04/18 04:06:07;;;;;;;;;;;;;;;1.86;100.00;99075.03;4994195;28;815;-66
2022/04/18 04:08:33;;;;;;;;;;;;;;;1.83;100.00;99077.34;4994239;28;1922;-65
2022/04/18 04:10:59;;;;;;;;;;;;;;;1.86;100.00;99080.47;4994280;28;791;-63
2022/04/18 04:16:27;;;;;;;;;;;;;;;1.93;100.00;99077.91;4994217;28;708;-68
2022/04/18 04:18:54;;;;;;;;;;;;;;;1.95;100.00;99083.78;4994186;28;898;-69
2022/04/18 04:21:19;;;;;;;;;;;;;;;1.97;100.00;99056.97;4994097;28;858;-66
2022/04/18 04:23:48;;;;;;;;;;;;;;;2.02;100.00;99079.22;4994144;28;910;-67
2022/04/18 04:26:14;;;;;;;;;;;;;;;2.00;100.00;99064.41;4994220;28;879;-67
2022/04/18 04:28:40;;;;;;;;;;;;;;;2.09;100.00;99083.22;4994174;28;1894;-68
2022/04/18 04:31:07;;;;;;;;;;;;;;;2.06;100.00;99067.63;4994117;28;831;-64
2022/04/18 04:33:33;;;;;;;;;;;;;;;2.10;100.00;99054.84;4956611;28;1381;-67
2022/04/18 04:36:00;;;;;;;;;;;;;;;2.11;100.00;99091.84;4954081;29;1294;-66
2022/04/18 04:38:26;;;;;;;;;;;;;;;2.10;100.00;99098.47;4955852;28;788;-66
2022/04/18 04:40:54;;;;;;;;;;;;;;;2.11;100.00;99087.16;4954957;28;946;-67
2022/04/18 04:43:21;;;;;;;;;;;;;;;2.13;100.00;99100.44;4954916;28;811;-67
2022/04/18 04:45:48;;;;;;;;;;;;;;;2.14;100.00;99091.91;4955281;28;894;-65
2022/04/18 04:48:14;;;;;;;;;;;;;;;2.15;100.00;99109.81;4954749;28;1918;-65
2022/04/18 04:50:41;;;;;;;;;;;;;;;2.16;100.00;99100.50;4954852;28;834;-64
2022/04/18 04:53:08;;;;;;;;;;;;;;;2.20;100.00;99116.94;4954710;28;859;-66
2022/04/18 04:55:37;;;;;;;;;;;;;;;2.21;100.00;99122.00;4954935;28;890;-64
2022/04/18 04:58:04;;;;;;;;;;;;;;;2.25;100.00;99111.97;4954837;28;824;-66
2022/04/18 05:00:31;;;;;;;;;;;;;;;2.30;100.00;99113.59;4954776;28;1222;-65
2022/04/18 05:15:09;;;;;;;;;;;;;;;2.28;100.00;99126.03;4954601;29;610;-67
2022/04/18 05:17:36;;;;;;;;;;;;;;;2.26;100.00;99123.66;4954316;28;870;-64
2022/04/18 05:20:09;;;;;;;;;;;;;;;2.27;100.00;99129.91;4954313;28;800;-64
2022/04/18 05:22:36;;;;;;;;;;;;;;;2.28;100.00;99134.19;4952824;29;1444;-68
2022/04/18 05:25:03;;;;;;;;;;;;;;;2.22;100.00;99128.28;4954631;28;990;-68
2022/04/18 05:27:32;;;;;;;;;;;;;;;2.24;100.00;99128.69;4954032;28;1895;-65
2022/04/18 05:29:59;;;;;;;;;;;;;;;2.19;100.00;99127.03;4952904;29;815;-67
2022/04/18 05:35:28;;;;;;;;;;;;;;;2.22;100.00;99131.78;4992642;28;622;-67
2022/04/18 05:37:54;;;;;;;;;;;;;;;2.20;100.00;99130.56;4992668;28;823;-67
2022/04/18 05:40:21;;;;;;;;;;;;;;;2.20;100.00;99127.84;4992637;28;917;-67
2022/04/18 05:42:48;;;;;;;;;;;;;;;2.23;100.00;99133.34;4992824;28;807;-69
2022/04/18 05:45:13;;;;;;;;;;;;;;;2.20;100.00;99125.91;4975018;28;1127;-69
2022/04/18 05:59:53;;;;;;;;;;;;;;;2.16;100.00;99144.13;4992648;28;634;-72
2022/04/18 06:02:20;;;;;;;;;;;;;;;2.16;100.00;99141.41;4974760;28;1219;-74
2022/04/18 06:04:47;;;;;;;;;;;;;;;2.16;100.00;99148.81;4992473;28;831;-71
2022/04/18 06:07:13;;;;;;;;;;;;;;;2.18;100.00;99143.78;4991629;28;1898;-70
2022/04/18 06:09:40;;;;;;;;;;;;;;;2.14;100.00;99162.78;4992159;28;863;-69
2022/04/18 06:12:10;;;;;;;;;;;;;;;2.13;100.00;99155.75;4992191;28;840;-72
2022/04/18 06:14:40;;;;;;;;;;;;;;;2.12;100.00;99162.38;4992160;28;862;-70
2022/04/18 06:17:06;;;;;;;;;;;;;;;2.11;100.00;99157.28;4992096;28;852;-72
2022/04/18 06:19:33;;;;;;;;;;;;;;;2.08;100.00;99158.78;4992079;28;878;-71
2022/04/18 06:22:00;;;;;;;;;;;;;;;2.07;100.00;99162.69;4974914;28;1332;-71
2022/04/18 06:24:26;;;;;;;;;;;;;;;2.07;100.00;99162.69;4974656;28;1455;-72
2022/04/18 06:26:52;;;;;;;;;;;;;;;2.11;100.00;99168.19;4974818;28;1229;-70
2022/04/18 06:29:20;;;;;;;;;;;;;;;2.17;100.00;99164.00;4991934;28;1974;-70
2022/04/18 06:31:49;;;;;;;;;;;;;;;2.22;100.00;99166.44;4974436;28;1314;-72
2022/04/18 06:34:17;;;;;;;;;;;;;;;2.29;100.00;99168.53;4991915;28;839;-69
2022/04/18 06:36:43;;;;;;;;;;;;;;;2.28;100.00;99169.66;4991909;28;864;-69
2022/04/18 06:39:10;;;;;;;;;;;;;;;2.26;100.00;99175.47;4991957;28;819;-69
2022/04/18 06:41:36;;;;;;;;;;;;;;;2.28;100.00;99169.66;4991904;28;862;-68
2022/04/18 07:11:17;;;;;;;;;;;;;;;2.82;100.00;99191.25;4991963;28;684;-74
2022/04/18 07:13:44;;;;;;;;;;;;;;;2.80;99.85;99193.56;4991600;28;883;-72
2022/04/18 07:16:11;;;;;;;;;;;;;;;2.85;100.00;99189.72;4991739;28;876;-69
2022/04/18 07:18:37;;;;;;;;;;;;;;;2.84;100.00;99210.78;4991650;28;867;-70
2022/04/18 07:21:04;;;;;;;;;;;;;;;2.86;99.80;99200.28;4977900;28;1243;-70
2022/04/18 07:23:29;;;;;;;;;;;;;;;2.81;99.80;99203.31;4993585;28;1401;-73
2022/04/18 07:25:56;;;;;;;;;;;;;;;2.76;99.60;99197.38;4995201;28;811;-68
2022/04/18 07:28:27;;;;;;;;;;;;;;;2.74;100.00;99207.88;4994933;28;1972;-70
2022/04/18 07:30:56;;;;;;;;;;;;;;;2.69;100.00;99205.44;4961639;28;1770;-72
2022/04/18 07:33:23;;;;;;;;;;;;;;;2.72;100.00;99200.03;4994556;28;1297;-74
2022/04/18 07:35:50;;;;;;;;;;;;;;;2.77;100.00;99204.41;4977619;28;1312;-73
2022/04/18 07:41:04;;;;;;;;;;;;;;;2.74;100.00;99225.03;4995149;28;693;-72
2022/04/18 07:43:34;;;;;;;;;;;;;;;2.75;100.00;99212.97;4994745;28;819;-73
2022/04/18 07:46:02;;;;;;;;;;;;;;;2.83;100.00;99208.41;4977356;28;1303;-73
2022/04/18 07:48:35;;;;;;;;;;;;;;;2.86;100.00;99229.53;4994494;28;1914;-71
2022/04/18 07:53:51;;;;;;;;;;;;;;;2.85;99.72;99222.50;4994888;28;714;-71
2022/04/18 07:56:19;;;;;;;;;;;;;;;2.84;99.27;99246.28;4977210;28;1007;-68
2022/04/18 07:58:47;;;;;;;;;;;;;;;2.90;99.80;99235.03;4994399;28;921;-66
2022/04/18 08:01:24;;;;;;;;;;;;;;;2.97;99.27;99244.16;4994436;28;886;-71
2022/04/18 08:03:51;;;;;;;;;;;;;;;3.04;99.82;99248.94;4994588;28;898;-68
2022/04/18 08:06:18;;;;;;;;;;;;;;;3.08;99.09;99247.03;4994337;28;823;-70
2022/04/18 08:08:45;;;;;;;;;;;;;;;3.02;99.52;99252.03;4976844;28;1887;-73
2022/04/18 08:11:16;;;;;;;;;;;;;;;3.09;99.28;99256.81;4994342;28;799;-71
2022/04/18 08:13:44;;;;;;;;;;;;;;;3.08;98.68;99263.44;4994446;28;847;-67
2022/04/18 08:16:14;;;;;;;;;;;;;;;3.13;98.20;99256.88;4976987;28;1093;-70
2022/04/18 08:18:45;;;;;;;;;;;;;;;3.16;99.10;99256.94;4994378;28;918;-68
2022/04/18 08:21:20;;;;;;;;;;;;;;;3.19;98.29;99255.41;4994287;28;927;-69
2022/04/18 08:23:48;;;;;;;;;;;;;;;3.16;98.06;99267.88;4994148;28;1061;-72
2022/04/18 08:26:15;;;;;;;;;;;;;;;3.19;99.07;99261.66;4993948;28;827;-73
2022/04/18 08:28:42;;;;;;;;;;;;;;;3.19;99.39;99266.34;4976373;28;1890;-69
2022/04/18 08:31:08;;;;;;;;;;;;;;;3.21;99.58;99262.06;4993563;28;820;-69
2022/04/18 08:33:39;;;;;;;;;;;;;;;3.21;99.68;99261.28;4993455;28;1429;-72
2022/04/18 08:36:06;;;;;;;;;;;;;;;3.24;99.21;99261.38;4973721;28;1232;-73
2022/04/18 08:38:32;;;;;;;;;;;;;;;3.30;99.53;99264.56;4976243;28;1363;-68
2022/04/18 08:41:01;;;;;;;;;;;;;;;3.31;99.21;99262.59;4976433;28;1032;-73
2022/04/18 08:43:28;;;;;;;;;;;;;;;3.34;99.15;99270.88;4994070;28;890;-71
2022/04/18 08:45:56;;;;;;;;;;;;;;;3.29;99.29;99271.19;4976271;28;927;-76
2022/04/18 08:53:58;;;;;;;;;;;;;;;3.33;100.00;99280.22;4993487;28;689;-71
2022/04/18 08:56:26;;;;;;;;;;;;;;;3.33;98.09;99276.69;4993646;28;851;-71
2022/04/18 08:58:53;;;;;;;;;;;;;;;3.24;98.36;99279.66;4976514;28;1303;-73
2022/04/18 09:01:20;;;;;;;;;;;;;;;3.21;98.57;99294.84;4975790;28;1282;-73
2022/04/18 09:03:47;;;;;;;;;;;;;;;3.21;99.95;99296.81;4993497;28;878;-71
2022/04/18 09:06:14;;;;;;;;;;;;;;;3.23;99.66;99292.53;4975611;28;1252;-73
2022/04/18 09:08:46;;;;;;;;;;;;;;;3.30;100.00;99291.88;4993422;28;1878;-74
2022/04/18 09:11:29;;;;;;;;;;;;;;;3.38;100.00;99292.78;4993176;28;807;-68
2022/04/18 09:14:05;;;;;;;;;;;;;;;3.43;99.08;99300.66;4993164;28;906;-70
2022/04/18 09:16:33;;;;;;;;;;;;;;;3.52;99.88;99297.66;4975766;28;1274;-70
2022/04/18 09:19:05;;;;;;;;;;;;;;;3.59;98.19;99297.78;4993154;28;863;-71
2022/04/18 09:21:32;;;;;;;;;;;;;;;3.53;98.22;99304.72;4972425;28;1447;-72
2022/04/18 09:24:04;;;;;;;;;;;;;;;3.56;98.52;99302.03;4975515;28;1088;-76
2022/04/18 09:29:38;;;;;;;;;;;;;;;3.48;100.00;99314.81;4992840;28;689;-72
2022/04/18 09:32:11;;;;;;;;;;;;;;;3.56;100.00;99304.75;4991771;28;1247;-73
2022/04/18 09:34:39;;;;;;;;;;;;;;;3.42;98.78;99294.41;4974852;28;1338;-71
2022/04/18 09:37:10;;;;;;;;;;;;;;;3.22;98.74;99303.81;4975203;28;1550;-68
2022/04/18 09:39:36;;;;;;;;;;;;;;;3.19;99.93;99304.56;4992864;28;879;-72
2022/04/18 09:42:11;;;;;;;;;;;;;;;3.25;100.00;99309.34;4974407;28;2156;-73
2022/04/18 09:44:38;;;;;;;;;;;;;;;3.32;100.00;99305.16;4992505;28;858;-74
2022/04/18 09:47:05;;;;;;;;;;;;;;;3.41;100.00;99316.63;4992471;28;867;-73
2022/04/18 09:49:38;;;;;;;;;;;;;;;3.42;98.88;99318.22;4992429;28;1981;-74
2022/04/18 09:52:12;;;;;;;;;;;;;;;3.36;98.26;99315.00;4975243;28;1361;-74
2022/04/18 09:55:07;;;;;;;;;;;;;;;3.31;100.00;99318.03;4992295;28;1140;-72
2022/04/18 10:23:55;;;;;;;;;;;;;;;3.39;99.43;99344.34;6069626;23;1684;-69
2022/04/18 10:26:34;;;;;;;;;;;;;;;3.30;98.97;99345.72;4933827;29;1680;-70
2022/04/18 10:29:01;;;;;;;;;;;;;;;3.32;99.81;99352.38;4934226;29;1911;-73
2022/04/18 10:31:32;;;;;;;;;;;;;;;3.40;99.46;99339.66;4934307;29;886;-70
2022/04/18 10:33:59;;;;;;;;;;;;;;;3.51;99.22;99342.56;4934231;29;839;-70
2022/04/18 10:36:33;;;;;;;;;;;;;;;3.63;98.33;99345.09;4934209;29;819;-69
2022/04/18 10:39:08;;;;;;;;;;;;;;;3.76;99.62;99353.88;4934376;29;803;-68
2022/04/18 10:41:35;;;;;;;;;;;;;;;3.79;97.27;99344.94;4934366;29;852;-67
2022/04/18 10:44:08;;;;;;;;;;;;;;;3.70;95.66;99334.25;4934222;29;828;-71
2022/04/18 10:46:36;;;;;;;;;;;;;;;3.65;95.63;99349.03;4934128;29;839;-71
2022/04/18 10:49:04;;;;;;;;;;;;;;;3.55;96.76;99344.19;4933914;29;2332;-69
2022/04/18 10:51:38;;;;;;;;;;;;;;;3.60;97.89;99356.75;4932814;29;1154;-65
2022/04/18 10:54:07;;;;;;;;;;;;;;;3.75;99.85;99344.88;4936083;29;839;-70
2022/04/18 10:56:52;;;;;;;;;;;;;;;3.92;99.69;99350.97;4937730;29;910;-67
2022/04/18 11:11:36;;;;;;;;;;;;;;;3.83;97.35;99346.56;4937847;29;764;-68
2022/04/18 11:14:13;;;;;;;;;;;;;;;3.88;98.01;99350.91;4937549;29;898;-67
2022/04/18 11:16:43;;;;;;;;;;;;;;;4.09;97.33;99351.22;4937353;29;796;-66
2022/04/18 11:19:10;;;;;;;;;;;;;;;4.39;94.51;99344.97;4920240;29;1207;-66
2022/04/18 11:21:59;;;;;;;;;;;;;;;4.56;93.20;99349.09;4937257;29;820;-65
2022/04/18 11:24:44;;;;;;;;;;;;;;;4.81;92.35;99362.28;4941055;29;1201;-64
2022/04/18 11:27:12;;;;;;;;;;;;;;;4.79;89.48;99353.66;4956367;29;844;-63
2022/04/18 11:29:38;;;;;;;;;;;;;;;4.97;93.03;99360.13;4956357;29;882;-63
2022/04/18 11:32:06;;;;;;;;;;;;;;;5.18;88.76;99365.00;4956227;29;886;-65
2022/04/18 11:34:33;;;;;;;;;;;;;;;5.14;90.02;99357.94;4956315;29;874;-63
2022/04/18 11:37:01;;;;;;;;;;;;;;;4.91;91.36;99361.63;4956217;29;886;-62
2022/04/18 11:39:47;;;;;;;;;;;;;;;4.88;92.56;99354.94;4956098;28;819;-63
2022/04/18 11:42:17;;;;;;;;;;;;;;;4.74;94.05;99353.97;4956148;29;796;-65
2022/04/18 11:44:44;;;;;;;;;;;;;;;4.66;94.88;99359.38;4956004;29;918;-66
2022/04/18 11:47:15;;;;;;;;;;;;;;;4.79;96.55;99351.69;4956241;29;831;-65
2022/04/18 11:49:42;;;;;;;;;;;;;;;4.87;95.59;99338.88;4956310;29;780;-66
2022/04/18 11:52:21;;;;;;;;;;;;;;;5.18;97.27;99345.84;4956076;29;815;-65
2022/04/18 11:54:58;;;;;;;;;;;;;;;4.88;93.60;99341.22;4956124;28;947;-68
2022/04/18 11:57:25;;;;;;;;;;;;;;;4.70;93.98;99349.25;4955907;29;808;-66
2022/04/18 11:59:52;;;;;;;;;;;;;;;4.60;93.50;99357.34;4955843;29;902;-67
2022/04/18 12:08:08;;;;;;;;;;;;;;;4.42;96.21;99357.16;4955598;29;1879;-64
2022/04/18 12:10:36;;;;;;;;;;;;;;;4.76;96.00;99357.13;4955514;28;906;-67
2022/04/18 12:13:07;;;;;;;;;;;;;;;4.94;95.69;99346.38;4955548;29;898;-66
2022/04/18 12:15:35;;;;;;;;;;;;;;;5.07;95.78;99348.47;4955911;29;784;-68
2022/04/18 12:18:11;;;;;;;;;;;;;;;5.13;92.43;99346.19;4955578;29;890;-66
2022/04/18 12:20:41;;;;;;;;;;;;;;;5.13;90.71;99340.72;4955518;29;815;-65
2022/04/18 12:23:09;;;;;;;;;;;;;;;5.07;92.35;99340.25;4955233;29;1033;-64
2022/04/18 12:25:36;;;;;;;;;;;;;;;5.21;91.61;99350.56;4955164;28;1249;-64
2022/04/18 12:28:05;;;;;;;;;;;;;;;5.40;91.70;99346.03;4955387;29;1910;-64
2022/04/18 12:30:31;;;;;;;;;;;;;;;5.40;92.19;99351.50;4938226;29;1064;-62
2022/04/18 12:33:36;;;;;;;;;;;;;;;5.50;91.46;99332.44;4955193;29;846;-63
2022/04/18 12:39:06;;;;;;;;;;;;;;;5.06;92.31;99338.69;4896108;29;638;-63
2022/04/18 12:41:33;;;;;;;;;;;;;;;4.97;93.21;99335.47;4896005;29;908;-63
2022/04/18 12:44:01;;;;;;;;;;;;;;;5.01;94.06;99335.50;4895996;29;815;-63
2022/04/18 12:46:31;;;;;;;;;;;;;;;5.10;94.48;99341.47;4895921;29;948;-62
2022/04/18 12:49:08;;;;;;;;;;;;;;;5.23;93.58;99342.00;4895888;29;1887;-63
2022/04/18 12:51:40;;;;;;;;;;;;;;;5.25;91.45;99332.22;4895720;29;867;-64
2022/04/18 12:54:27;;;;;;;;;;;;;;;5.16;91.10;99334.47;4880001;29;1176;-61
2022/04/18 12:56:54;;;;;;;;;;;;;;;5.27;89.88;99348.25;4895832;29;800;-62
2022/04/18 12:59:27;;;;;;;;;;;;;;;5.42;88.21;99352.72;4896081;29;1015;-62
2022/04/18 13:02:13;;;;;;;;;;;;;;;5.31;87.17;99343.59;4895584;29;832;-62
2022/04/18 13:04:58;;;;;;;;;;;;;;;5.05;87.42;99344.53;4895345;29;1314;-62
2022/04/18 13:07:27;;;;;;;;;;;;;;;5.07;88.63;99348.47;4940251;29;1957;-62
2022/04/18 13:10:03;;;;;;;;;;;;;;;5.07;88.45;99347.69;4954462;28;902;-63
2022/04/18 13:12:33;;;;;;;;;;;;;;;5.09;87.84;99350.84;4954447;29;878;-61
2022/04/18 13:15:05;;;;;;;;;;;;;;;5.21;86.06;99347.06;4954380;29;859;-61
2022/04/18 13:17:34;;;;;;;;;;;;;;;5.19;89.68;99343.91;4936386;29;1294;-61
2022/04/18 13:20:06;;;;;;;;;;;;;;;5.35;88.17;99341.69;4954292;28;811;-61
2022/04/18 13:22:35;;;;;;;;;;;;;;;5.37;90.13;99341.31;4954220;29;851;-61
2022/04/18 13:25:02;;;;;;;;;;;;;;;5.36;89.17;99346.00;4954189;28;1204;-61
2022/04/18 13:27:29;;;;;;;;;;;;;;;5.30;88.75;99353.78;4954385;29;1922;-61
2022/04/18 13:29:56;;;;;;;;;;;;;;;5.32;88.87;99350.66;4954200;29;886;-61
2022/04/18 13:32:24;;;;;;;;;;;;;;;5.15;87.78;99343.09;4954150;28;894;-61
2022/04/18 13:34:51;;;;;;;;;;;;;;;4.89;88.54;99347.53;4954015;29;930;-61
2022/04/18 13:37:18;;;;;;;;;;;;;;;4.74;89.43;99360.25;4954018;28;883;-61
2022/04/18 13:39:47;;;;;;;;;;;;;;;4.73;91.19;99353.19;4953999;29;827;-61
2022/04/18 13:42:15;;;;;;;;;;;;;;;4.66;87.98;99356.66;4954016;29;921;-62
2022/04/18 13:44:41;;;;;;;;;;;;;;;4.61;89.00;99364.38;4953890;29;847;-61
2022/04/18 13:47:07;;;;;;;;;;;;;;;4.72;89.51;99356.31;4953885;29;787;-60
2022/04/18 13:49:34;;;;;;;;;;;;;;;4.94;88.15;99349.91;4953888;29;1882;-64
2022/04/18 13:52:01;;;;;;;;;;;;;;;5.24;84.95;99354.50;4953740;28;949;-62
2022/04/18 13:54:27;;;;;;;;;;;;;;;5.48;83.51;99348.47;4953808;29;831;-62
2022/04/18 13:56:56;;;;;;;;;;;;;;;5.79;80.68;99351.06;4953839;29;871;-62
2022/04/18 13:59:23;;;;;;;;;;;;;;;5.93;82.03;99346.44;4953764;29;901;-61
2022/04/18 14:01:50;;;;;;;;;;;;;;;5.94;78.78;99352.72;4953665;29;815;-61
2022/04/18 14:04:16;;;;;;;;;;;;;;;5.99;82.40;99341.41;4953679;29;1042;-61
2022/04/18 14:06:44;;;;;;;;;;;;;;;5.98;81.26;99353.56;4953828;28;812;-62
2022/04/18 14:09:13;;;;;;;;;;;;;;;5.81;82.56;99343.22;4953589;29;1887;-62
2022/04/18 14:11:40;;;;;;;;;;;;;;;5.78;81.78;99347.50;4953626;29;814;-61
2022/04/18 14:14:07;;;;;;;;;;;;;;;5.60;81.40;99354.81;4953567;28;902;-61
2022/04/18 14:22:04;;;;;;;;;;;;;;;5.26;82.15;99365.88;4953849;29;610;-61
2022/04/18 14:24:31;;;;;;;;;;;;;;;5.41;83.69;99359.34;4953485;29;1216;-62
2022/04/18 14:26:57;;;;;;;;;;;;;;;5.08;83.08;99366.50;4953525;29;854;-61
2022/04/18 14:41:35;;;;;;;;;;;;;;;5.11;84.14;99365.72;4957592;29;618;-61
2022/04/18 14:44:02;;;;;;;;;;;;;;;5.13;83.76;99364.59;4957224;29;815;-60
2022/04/18 14:46:30;;;;;;;;;;;;;;;5.12;84.27;99369.25;4957208;29;831;-60
2022/04/18 14:48:57;;;;;;;;;;;;;;;5.13;81.99;99367.31;4957232;29;1959;-60
2022/04/18 14:51:27;;;;;;;;;;;;;;;5.10;82.99;99364.16;4956905;29;858;-61
2022/04/18 14:53:53;;;;;;;;;;;;;;;5.04;83.61;99375.84;4957054;29;870;-61
2022/04/18 14:56:20;;;;;;;;;;;;;;;4.99;83.52;99368.72;4956949;29;852;-61
2022/04/18 14:58:46;;;;;;;;;;;;;;;4.89;84.80;99367.47;4956922;29;851;-61
2022/04/18 15:01:13;;;;;;;;;;;;;;;4.83;83.65;99373.66;4956824;29;1042;-65
2022/04/18 15:03:40;;;;;;;;;;;;;;;4.72;84.91;99368.06;4956847;29;815;-61
2022/04/18 15:06:06;;;;;;;;;;;;;;;4.62;84.21;99368.72;4956745;28;827;-61
2022/04/18 15:08:33;;;;;;;;;;;;;;;4.58;85.36;99373.34;4956692;29;1953;-61
2022/04/18 15:10:59;;;;;;;;;;;;;;;4.57;85.85;99371.78;4956665;29;815;-60
2022/04/18 15:13:25;;;;;;;;;;;;;;;4.59;84.14;99367.53;4956592;28;877;-60
2022/04/18 15:15:53;;;;;;;;;;;;;;;4.62;83.97;99371.44;4956612;29;902;-60
2022/04/18 15:18:19;;;;;;;;;;;;;;;4.61;84.11;99367.94;4956783;29;855;-60
2022/04/18 15:20:45;;;;;;;;;;;;;;;4.67;84.37;99382.06;4956699;28;823;-60
2022/04/18 15:23:11;;;;;;;;;;;;;;;4.65;85.21;99384.38;4956747;29;954;-59
2022/04/18 15:25:39;;;;;;;;;;;;;;;4.62;84.88;99380.44;4956471;29;1426;-60
2022/04/18 15:28:06;;;;;;;;;;;;;;;4.55;86.35;99374.91;4956261;29;1973;-59
2022/04/18 15:33:17;;;;;;;;;;;;;;;4.24;87.93;99378.78;4956324;29;662;-59
2022/04/18 15:35:44;;;;;;;;;;;;;;;4.13;88.71;99380.59;4956518;29;910;-59
2022/04/18 15:38:10;;;;;;;;;;;;;;;4.06;89.90;99370.34;4956176;29;808;-59
2022/04/18 15:40:36;;;;;;;;;;;;;;;4.00;89.06;99380.78;4955072;28;835;-59
2022/04/18 15:43:03;;;;;;;;;;;;;;;3.95;90.88;99386.59;4955977;28;891;-59
2022/04/18 15:45:33;;;;;;;;;;;;;;;3.86;89.76;99384.13;4956100;29;855;-60
2022/04/18 15:47:59;;;;;;;;;;;;;;;3.72;90.90;99381.16;4955882;29;1943;-62
2022/04/18 15:50:26;;;;;;;;;;;;;;;3.59;91.35;99382.50;4956269;29;741;-59
2022/04/18 15:52:53;;;;;;;;;;;;;;;3.50;92.35;99385.50;4938678;29;1182;-60
2022/04/18 15:55:20;;;;;;;;;;;;;;;3.41;92.95;99374.00;4956070;29;796;-60
2022/04/18 15:57:46;;;;;;;;;;;;;;;3.36;94.45;99377.03;4955803;29;808;-60
2022/04/18 16:00:13;;;;;;;;;;;;;;;3.33;92.94;99384.03;4956164;29;815;-60
2022/04/18 16:02:40;;;;;;;;;;;;;;;3.30;93.35;99370.31;4955798;29;902;-59
2022/04/18 16:05:08;;;;;;;;;;;;;;;3.34;93.66;99376.63;4955694;29;807;-59
2022/04/18 16:07:35;;;;;;;;;;;;;;;3.37;92.65;99382.16;4955597;28;1891;-59
2022/04/18 16:10:02;;;;;;;;;;;;;;;3.42;92.83;99384.56;4955641;29;811;-59
2022/04/18 16:12:28;;;;;;;;;;;;;;;3.50;92.99;99385.50;4955646;29;886;-60
2022/04/18 16:14:54;;;;;;;;;;;;;;;3.57;90.60;99390.28;4955507;29;807;-60
2022/04/18 16:17:21;;;;;;;;;;;;;;;3.64;90.81;99382.19;4955531;29;850;-60
2022/04/18 16:19:48;;;;;;;;;;;;;;;3.66;91.45;99371.69;4938011;29;1167;-60
2022/04/18 16:22:14;;;;;;;;;;;;;;;3.71;88.85;99385.03;4955435;29;812;-60
2022/04/18 16:24:41;;;;;;;;;;;;;;;3.73;90.55;99379.97;4955322;28;1366;-60
2022/04/18 16:27:07;;;;;;;;;;;;;;;3.76;89.05;99378.47;4955396;29;827;-60
2022/04/18 16:32:20;;;;;;;;;;;;;;;3.74;90.80;99386.25;4955230;29;705;-60
2022/04/18 16:34:47;;;;;;;;;;;;;;;3.71;88.42;99385.03;4955262;29;831;-60
2022/04/18 16:37:13;;;;;;;;;;;;;;;3.71;88.38;99385.03;4955182;29;819;-60
2022/04/18 16:39:40;;;;;;;;;;;;;;;3.66;88.82;99382.63;4955330;29;800;-60
2022/04/18 16:47:57;;;;;;;;;;;;;;;3.56;88.16;99394.94;4877094;29;1934;-60
2022/04/18 16:50:24;;;;;;;;;;;;;;;3.48;88.64;99402.25;4877198;29;820;-60
2022/04/18 16:52:51;;;;;;;;;;;;;;;3.42;89.33;99403.69;4907043;29;1626;-61
2022/04/18 16:55:17;;;;;;;;;;;;;;;3.36;89.48;99404.38;4955021;29;831;-60
2022/04/18 16:57:44;;;;;;;;;;;;;;;3.28;90.82;99408.91;4954767;29;795;-60
2022/04/18 17:00:12;;;;;;;;;;;;;;;3.15;91.65;99405.53;4954950;28;820;-60